Randolph, Vermont
Current Conditions -  °F | °C
As of 4:51 PM on Friday 28 Nov 2014 (Local Time) from KMPV Reporting Station
Broken Clouds Broken Clouds  
Wind Chill: 11°   Ceiling: 3500
Heat Index: 19°   Visibility: 10mi
Dew Point: 13°   Wind: 6mph
Humidity: 77%   Direction: 310°NW
Pressure: 30.11"   Gusts: NA
Location:  43.92°N, 72.66°W
Report Text: KMPV 282151Z AUTO 31005KT 10SM BKN035 BKN043 M07/M11 A3011 RMK AO2 SLP219 T10721106
Loading
Personal Weather Stations






























Interactive Weather Map New forecast layout! Learn more

10-Day Weather Forecast

Advertisements
Track Severe Weather on mobile